Time;durP1;ratioP1;P1;durP2;ratioP2;P2;SDS_P1;SDS_P2;PMS_P1;PMS_P2;Temp;Humidity;BMP_temperature;BMP_pressure;BME280_temperature;BME280_humidity;BME280_pressure;Samples;Min_cycle;Max_cycle;Signal;HPM_P1;HPM_P2
2022/03/10 00:00:26;;;;;;;2.10;1.20;;;;;;;0.04;66.59;97044.13;5037985;28;20208;-69
2022/03/10 00:02:52;;;;;;;3.20;2.23;;;;;;;0.00;66.52;97046.06;5037900;28;20227;-69
2022/03/10 00:05:19;;;;;;;1.43;1.33;;;;;;;0.07;66.42;97044.75;5038214;28;20208;-69
2022/03/10 00:07:47;;;;;;;4.47;3.17;;;;;;;0.14;66.41;97042.59;5038234;28;20251;-69
2022/03/10 00:10:14;;;;;;;2.90;2.60;;;;;;;0.13;66.05;97040.97;5037891;28;20201;-69
2022/03/10 00:12:47;;;;;;;6.33;3.03;;;;;;;0.05;66.15;97044.03;5037120;28;20236;-68
2022/03/10 00:15:14;;;;;;;2.90;2.00;;;;;;;-0.15;66.77;97037.53;5037655;28;20201;-68
2022/03/10 00:17:41;;;;;;;3.50;1.80;;;;;;;-0.11;66.82;97039.06;5039439;28;20212;-68
2022/03/10 00:20:08;;;;;;;7.87;2.17;;;;;;;-0.11;66.41;97050.22;5038777;28;20202;-68
2022/03/10 00:22:44;;;;;;;1.90;1.17;;;;;;;0.23;65.32;97047.22;5037162;28;20217;-68
2022/03/10 00:25:12;;;;;;;2.03;1.93;;;;;;;-0.01;65.95;97051.34;5037146;28;20197;-69
2022/03/10 00:27:38;;;;;;;3.63;2.37;;;;;;;-0.09;65.78;97052.72;5039080;28;20205;-69
2022/03/10 00:30:07;;;;;;;4.70;2.87;;;;;;;-0.19;67.07;97056.78;5038045;28;20732;-69
2022/03/10 00:32:33;;;;;;;5.53;1.80;;;;;;;-0.36;67.74;97062.97;5037255;28;20217;-69
2022/03/10 00:35:00;;;;;;;1.70;1.60;;;;;;;-0.64;68.90;97063.88;5038289;28;21075;-69
2022/03/10 00:37:27;;;;;;;2.93;2.13;;;;;;;-0.36;68.68;97069.94;5037990;28;20212;-69
2022/03/10 00:39:53;;;;;;;6.13;2.37;;;;;;;-0.19;68.16;97072.31;5037725;28;20263;-69
2022/03/10 00:42:21;;;;;;;5.17;2.77;;;;;;;0.04;67.48;97065.66;5037027;28;20682;-69
2022/03/10 00:44:48;;;;;;;2.97;2.20;;;;;;;-0.25;67.63;97068.34;5037835;28;20201;-68
2022/03/10 00:47:15;;;;;;;0.93;0.93;;;;;;;-0.22;66.64;97062.16;5038070;28;20201;-69
2022/03/10 00:49:42;;;;;;;1.60;1.50;;;;;;;-0.29;67.31;97063.47;5038318;28;20221;-69
2022/03/10 00:52:08;;;;;;;3.53;2.13;;;;;;;-0.24;66.92;97062.25;5035619;28;20201;-69
2022/03/10 00:54:35;;;;;;;3.50;2.07;;;;;;;-0.22;67.63;97062.16;5037074;28;21047;-69
2022/03/10 00:57:01;;;;;;;1.63;1.50;;;;;;;-0.33;67.39;97061.97;5038245;28;20201;-69
2022/03/10 00:59:29;;;;;;;3.30;1.80;;;;;;;-0.19;67.44;97061.97;5037255;28;20684;-68
2022/03/10 01:01:56;;;;;;;1.53;1.43;;;;;;;-0.52;67.39;97074.38;5038536;28;20204;-68
2022/03/10 01:04:22;;;;;;;4.50;1.57;;;;;;;-0.44;66.94;97072.97;5043439;28;20248;-68
2022/03/10 01:06:49;;;;;;;3.50;1.20;;;;;;;-0.42;66.71;97070.28;5043928;28;20208;-68
2022/03/10 01:09:15;;;;;;;3.47;2.77;;;;;;;-0.45;66.82;97070.47;5043840;28;20239;-68
2022/03/10 01:11:42;;;;;;;2.70;1.77;;;;;;;-0.39;67.16;97072.72;5043986;28;20208;-68
2022/03/10 01:14:08;;;;;;;3.27;2.20;;;;;;;-0.49;67.48;97067.22;5045467;28;20232;-68
2022/03/10 01:16:36;;;;;;;5.30;1.20;;;;;;;-0.47;68.23;97067.97;5044204;28;20212;-68
2022/03/10 01:19:03;;;;;;;7.27;2.27;;;;;;;-0.50;68.42;97067.31;5043581;28;20213;-68
2022/03/10 01:21:30;;;;;;;1.10;1.00;;;;;;;-0.50;68.11;97072.50;5043521;28;20213;-68
2022/03/10 01:23:56;;;;;;;1.50;1.40;;;;;;;-0.49;68.34;97069.00;5042000;28;21083;-68
2022/03/10 01:26:23;;;;;;;5.03;2.20;;;;;;;-0.64;68.95;97075.06;5043243;28;20200;-68
2022/03/10 01:28:49;;;;;;;1.23;1.20;;;;;;;-0.52;67.48;97074.38;5043418;28;20319;-68
2022/03/10 01:31:16;;;;;;;1.83;1.40;;;;;;;-0.63;67.47;97068.97;5043217;28;20202;-68
2022/03/10 01:33:44;;;;;;;0.57;0.57;;;;;;;-0.46;67.51;97071.38;5042525;28;20335;-68
2022/03/10 01:36:10;;;;;;;0.67;0.67;;;;;;;-0.51;67.49;97061.31;5042433;28;20707;-68
2022/03/10 01:38:39;;;;;;;5.50;2.03;;;;;;;-0.50;67.99;97062.13;5043000;28;20646;-68
2022/03/10 01:41:06;;;;;;;0.97;0.97;;;;;;;-0.56;67.85;97057.31;5043256;28;20594;-68
2022/03/10 01:43:32;;;;;;;4.73;2.70;;;;;;;-0.69;69.21;97053.78;5042923;28;20221;-68
2022/03/10 01:46:02;;;;;;;5.90;1.67;;;;;;;-0.61;67.73;97054.19;5043181;28;20204;-68
2022/03/10 01:48:28;;;;;;;1.13;1.03;;;;;;;-0.60;66.90;97050.66;5042604;28;20311;-68
2022/03/10 01:50:56;;;;;;;3.27;1.80;;;;;;;-0.56;67.36;97055.59;5042526;28;20205;-68
2022/03/10 01:53:23;;;;;;;1.80;1.17;;;;;;;-0.78;67.88;97054.31;5042333;28;20721;-68
2022/03/10 01:55:50;;;;;;;0.83;0.83;;;;;;;-0.63;68.90;97061.22;5041759;28;20811;-67
2022/03/10 01:58:18;;;;;;;1.03;0.93;;;;;;;-0.63;68.74;97066.38;5036873;28;20213;-67
2022/03/10 02:00:44;;;;;;;3.00;1.67;;;;;;;-0.76;68.97;97060.25;5037197;28;20209;-68
2022/03/10 02:03:11;;;;;;;5.30;1.03;;;;;;;-0.87;69.12;97060.03;5036148;28;21342;-67
2022/03/10 02:05:37;;;;;;;2.33;1.90;;;;;;;-0.90;68.25;97059.41;5036780;28;20208;-68
2022/03/10 02:10:50;;;;;;;2.97;2.00;;;;;;;-1.00;68.32;97066.84;5036901;28;20208;-67
2022/03/10 02:13:16;;;;;;;5.43;3.00;;;;;;;-0.88;68.85;97066.16;5036167;28;20221;-67
2022/03/10 02:18:28;;;;;;;0.90;0.90;;;;;;;-0.98;69.02;97061.56;5036982;28;20815;-67
2022/03/10 02:20:54;;;;;;;23.33;1.70;;;;;;;-1.02;68.42;97057.50;5036864;28;20677;-67
2022/03/10 02:23:22;;;;;;;1.37;1.13;;;;;;;-0.92;68.38;97059.47;5036002;28;20713;-68
2022/03/10 02:25:49;;;;;;;2.00;1.27;;;;;;;-0.95;69.17;97054.47;5037126;28;20300;-67
2022/03/10 02:28:16;;;;;;;3.50;1.43;;;;;;;-0.91;69.01;97055.16;5036605;28;20209;-67
2022/03/10 02:30:42;;;;;;;0.90;0.87;;;;;;;-0.97;68.87;97061.50;5037050;28;20217;-67
2022/03/10 02:33:09;;;;;;;1.70;1.53;;;;;;;-1.14;69.29;97059.03;5036186;28;20227;-67
2022/03/10 02:35:35;;;;;;;0.63;0.63;;;;;;;-1.25;68.79;97060.56;5038876;28;20877;-67
2022/03/10 02:38:02;;;;;;;1.37;1.13;;;;;;;-1.29;68.54;97059.06;5040322;28;20216;-68
2022/03/10 02:40:30;;;;;;;1.90;1.20;;;;;;;-1.39;69.70;97062.25;5040956;28;20203;-67
2022/03/10 02:42:57;;;;;;;1.10;1.07;;;;;;;-1.74;71.16;97055.63;5039534;28;20228;-68
2022/03/10 02:45:23;;;;;;;1.07;1.00;;;;;;;-1.46;70.42;97064.34;5040770;28;20201;-68
2022/03/10 02:47:50;;;;;;;2.43;1.87;;;;;;;-1.45;70.74;97058.28;5040709;28;20201;-68
2022/03/10 02:50:17;;;;;;;2.80;1.40;;;;;;;-1.44;70.18;97066.84;5040632;28;21137;-68
2022/03/10 02:52:44;;;;;;;1.57;1.47;;;;;;;-1.33;69.56;97067.09;5039427;28;20221;-68
2022/03/10 02:55:11;;;;;;;3.13;1.33;;;;;;;-1.22;68.81;97066.41;5040254;28;20202;-69
2022/03/10 02:57:39;;;;;;;6.87;2.13;;;;;;;-1.09;68.67;97061.38;5040241;28;20207;-68
2022/03/10 03:00:09;;;;;;;1.73;1.23;;;;;;;-1.26;69.77;97065.81;5039960;28;20208;-68
2022/03/10 03:02:36;;;;;;;3.10;2.10;;;;;;;-1.32;69.77;97064.41;5039243;28;20224;-69
2022/03/10 03:05:04;;;;;;;1.33;1.33;;;;;;;-1.33;68.95;97061.94;5042116;28;20280;-68
2022/03/10 03:07:30;;;;;;;2.63;1.43;;;;;;;-1.54;69.81;97073.44;5045838;28;20197;-68
2022/03/10 03:09:57;;;;;;;1.03;0.70;;;;;;;-1.41;69.29;97072.69;5045653;28;20225;-68
2022/03/10 03:12:23;;;;;;;2.50;2.30;;;;;;;-1.31;69.25;97070.41;5045314;28;21000;-68
2022/03/10 03:14:51;;;;;;;1.33;1.23;;;;;;;-1.24;69.83;97067.41;5045982;28;20213;-69
2022/03/10 03:17:18;;;;;;;1.70;1.60;;;;;;;-1.38;70.82;97074.28;5046049;28;20213;-68
2022/03/10 03:19:44;;;;;;;0.77;0.77;;;;;;;-1.41;70.49;97074.41;5045763;28;20204;-68
2022/03/10 03:22:11;;;;;;;2.13;1.63;;;;;;;-1.37;69.96;97076.78;5046401;28;20208;-68
2022/03/10 03:24:38;;;;;;;4.93;1.50;;;;;;;-1.33;70.52;97078.25;5045321;28;20204;-68
2022/03/10 03:27:04;;;;;;;2.03;1.37;;;;;;;-1.41;70.78;97077.84;5043354;28;20502;-68
2022/03/10 03:29:31;;;;;;;3.47;2.53;;;;;;;-1.49;69.99;97079.19;5038696;28;20229;-69
2022/03/10 03:31:59;;;;;;;1.37;1.27;;;;;;;-1.30;69.70;97082.44;5038559;28;20601;-69
2022/03/10 03:34:25;;;;;;;1.73;1.50;;;;;;;-1.44;69.97;97079.78;5038195;28;20209;-69
2022/03/10 03:36:52;;;;;;;0.73;0.73;;;;;;;-1.53;70.91;97095.78;5038874;28;20204;-69
2022/03/10 03:39:19;;;;;;;3.80;2.80;;;;;;;-1.58;71.43;97092.63;5039013;28;20581;-69
2022/03/10 03:41:46;;;;;;;4.10;2.00;;;;;;;-1.86;70.83;97105.34;5039105;28;20198;-69
2022/03/10 03:44:12;;;;;;;1.70;1.60;;;;;;;-1.83;71.27;97104.34;5037610;28;20220;-68
2022/03/10 03:46:39;;;;;;;1.43;1.33;;;;;;;-1.56;70.94;97101.94;5037777;28;20201;-69
2022/03/10 03:49:07;;;;;;;2.67;1.70;;;;;;;-1.32;70.63;97102.34;5038831;28;20197;-68
2022/03/10 03:51:35;;;;;;;2.47;2.13;;;;;;;-1.29;70.66;97102.19;5039112;28;20580;-69
2022/03/10 03:54:02;;;;;;;1.70;1.60;;;;;;;-1.49;69.85;97107.63;5037416;28;20685;-69
2022/03/10 03:56:28;;;;;;;2.07;1.90;;;;;;;-1.48;69.87;97115.28;5038225;28;20702;-69
2022/03/10 03:58:55;;;;;;;1.07;0.90;;;;;;;-1.63;71.20;97120.44;5038006;28;20200;-69
2022/03/10 04:01:21;;;;;;;4.43;1.50;;;;;;;-1.77;72.14;97123.78;5038051;28;20504;-69
2022/03/10 04:03:48;;;;;;;1.67;1.57;;;;;;;-1.55;71.59;97118.31;5037719;28;20223;-69
2022/03/10 04:06:16;;;;;;;1.17;1.10;;;;;;;-1.46;71.37;97125.56;5037977;28;20696;-69
2022/03/10 04:08:42;;;;;;;2.30;1.53;;;;;;;-1.50;70.79;97124.88;5037809;28;20582;-69
2022/03/10 04:11:09;;;;;;;1.37;1.30;;;;;;;-1.59;70.62;97133.13;5038020;28;20515;-69
2022/03/10 04:13:37;;;;;;;1.40;1.30;;;;;;;-1.61;70.63;97134.13;5037283;28;20228;-69
2022/03/10 04:16:04;;;;;;;1.50;1.40;;;;;;;-1.51;70.68;97124.97;5037895;28;20205;-69
2022/03/10 04:18:30;;;;;;;1.40;1.30;;;;;;;-1.48;71.42;97127.38;5037769;28;20220;-69
2022/03/10 04:20:59;;;;;;;2.40;2.20;;;;;;;-1.45;71.50;97130.63;5038003;28;20235;-69
2022/03/10 04:23:27;;;;;;;3.73;2.30;;;;;;;-1.27;72.08;97123.59;5036895;28;20221;-69
2022/03/10 04:25:54;;;;;;;4.00;2.57;;;;;;;-1.35;71.92;97126.66;5038126;28;20207;-69
2022/03/10 04:28:20;;;;;;;3.07;2.83;;;;;;;-1.68;73.44;97138.78;5037569;28;20205;-69
2022/03/10 04:30:47;;;;;;;6.13;2.70;;;;;;;-1.83;74.61;97131.84;5037450;28;20252;-69
2022/03/10 04:33:14;;;;;;;2.10;1.57;;;;;;;-1.74;73.28;97133.13;5037236;28;20225;-69
2022/03/10 04:35:41;;;;;;;2.67;2.33;;;;;;;-1.66;71.93;97121.44;5037973;28;20201;-69
2022/03/10 04:38:08;;;;;;;3.27;2.60;;;;;;;-1.60;70.98;97115.97;5037290;28;20206;-68
2022/03/10 04:40:37;;;;;;;2.77;1.50;;;;;;;-1.52;71.43;97120.72;5037649;28;20193;-67
2022/03/10 04:43:03;;;;;;;1.47;1.37;;;;;;;-1.66;71.22;97128.38;5037257;28;20310;-68
2022/03/10 04:45:30;;;;;;;1.73;1.47;;;;;;;-1.63;71.33;97128.19;5037072;28;20721;-69
2022/03/10 04:47:56;;;;;;;2.40;2.20;;;;;;;-1.57;71.22;97125.28;5037113;28;20205;-69
2022/03/10 04:50:23;;;;;;;2.07;1.73;;;;;;;-1.84;72.12;97125.94;5037308;28;20740;-69
2022/03/10 04:52:50;;;;;;;2.47;1.63;;;;;;;-1.83;73.29;97126.69;5036421;28;20228;-69
2022/03/10 04:55:16;;;;;;;2.77;2.37;;;;;;;-1.77;73.59;97128.97;5036970;28;20204;-69
2022/03/10 04:57:44;;;;;;;3.13;2.00;;;;;;;-1.46;73.83;97115.22;5037298;28;20201;-69
2022/03/10 05:00:14;;;;;;;3.40;2.07;;;;;;;-1.41;72.82;97120.94;5036875;28;20208;-69
2022/03/10 05:02:41;;;;;;;2.07;1.63;;;;;;;-1.58;71.97;97124.47;5036306;28;20217;-69
2022/03/10 05:05:11;;;;;;;2.40;2.20;;;;;;;-1.61;71.71;97122.03;5043936;28;20206;-68
2022/03/10 05:07:37;;;;;;;3.53;2.27;;;;;;;-1.54;71.24;97123.38;5045233;28;20579;-68
2022/03/10 05:10:05;;;;;;;2.23;1.80;;;;;;;-1.79;71.76;97124.78;5045401;28;20228;-68
2022/03/10 05:12:31;;;;;;;2.00;1.60;;;;;;;-1.83;71.30;97124.09;5044922;28;20229;-68
2022/03/10 05:15:01;;;;;;;5.97;2.33;;;;;;;-1.78;72.49;97131.63;5044992;28;20208;-68
2022/03/10 05:17:27;;;;;;;1.90;1.70;;;;;;;-1.81;72.92;97131.75;5044701;28;20216;-68
2022/03/10 05:20:20;;;;;;;8.50;2.13;;;;;;;-1.57;72.28;97135.63;5091255;27;20569;-68
2022/03/10 05:22:47;;;;;;;12.80;2.83;;;;;;;-1.55;71.79;97128.66;5080997;28;20223;-68
2022/03/10 05:25:15;;;;;;;2.13;1.97;;;;;;;-1.54;71.96;97125.97;5082182;28;20210;-68
2022/03/10 05:27:43;;;;;;;2.10;1.67;;;;;;;-1.63;71.89;97133.38;5080468;28;20510;-68
2022/03/10 05:30:10;;;;;;;3.90;1.10;;;;;;;-1.69;71.69;97136.31;5081421;28;20204;-68
2022/03/10 05:32:37;;;;;;;4.30;2.67;;;;;;;-1.68;71.54;97130.19;5082185;28;20541;-68
2022/03/10 05:35:06;;;;;;;2.60;1.73;;;;;;;-1.59;71.28;97127.97;5081366;28;20207;-67
2022/03/10 05:37:37;;;;;;;4.20;1.83;;;;;;;-1.41;71.38;97116.63;5081847;28;20203;-67
2022/03/10 05:40:05;;;;;;;2.60;2.40;;;;;;;-1.53;71.52;97122.44;5081742;28;20228;-68
2022/03/10 05:42:32;;;;;;;1.40;1.33;;;;;;;-1.62;71.31;97133.28;5081814;28;20592;-68
2022/03/10 05:44:58;;;;;;;3.07;2.77;;;;;;;-1.58;70.32;97142.56;5081536;28;20640;-68
2022/03/10 05:47:25;;;;;;;3.70;1.83;;;;;;;-1.90;70.97;97137.41;5073014;28;20204;-68
2022/03/10 05:49:51;;;;;;;1.87;1.67;;;;;;;-1.98;71.18;97146.50;5072882;28;20282;-68
2022/03/10 05:52:18;;;;;;;4.03;3.13;;;;;;;-2.18;72.27;97136.38;5072070;28;20735;-68
2022/03/10 05:54:46;;;;;;;3.63;3.17;;;;;;;-1.71;71.28;97132.94;5072925;28;20219;-68
2022/03/10 05:57:12;;;;;;;0.73;0.73;;;;;;;-1.83;70.72;97136.19;5073079;28;20203;-68
2022/03/10 05:59:39;;;;;;;2.10;1.43;;;;;;;-1.89;71.23;97133.94;5073349;28;20223;-69
2022/03/10 06:02:05;;;;;;;3.03;1.67;;;;;;;-1.81;71.57;97134.34;5073211;28;20200;-68
2022/03/10 06:04:32;;;;;;;2.00;1.83;;;;;;;-1.69;70.78;97131.13;5072234;28;20207;-68
2022/03/10 06:06:58;;;;;;;1.47;1.37;;;;;;;-1.65;70.82;97130.06;5073041;28;20203;-69
2022/03/10 06:09:25;;;;;;;2.43;1.93;;;;;;;-1.66;70.58;97131.78;5072941;28;20204;-68
2022/03/10 06:11:53;;;;;;;2.80;1.40;;;;;;;-1.45;70.40;97124.63;5072644;28;20200;-68
2022/03/10 06:14:19;;;;;;;1.97;1.83;;;;;;;-1.57;70.27;97130.47;5072592;28;20228;-68
2022/03/10 06:16:46;;;;;;;6.10;3.33;;;;;;;-1.61;71.00;97124.63;5072743;28;20203;-68
2022/03/10 06:19:13;;;;;;;3.67;3.37;;;;;;;-1.53;71.39;97126.78;5072931;28;20233;-68
2022/03/10 06:21:39;;;;;;;7.37;3.60;;;;;;;-1.54;72.13;97120.81;5073148;28;20195;-68
2022/03/10 06:24:06;;;;;;;2.33;2.13;;;;;;;-1.40;71.78;97118.31;5071966;28;20602;-68
2022/03/10 06:26:34;;;;;;;2.03;1.83;;;;;;;-1.29;71.84;97118.53;5073057;28;20232;-67
2022/03/10 06:29:01;;;;;;;2.70;2.10;;;;;;;-1.05;71.62;97123.16;5072480;28;21028;-68
2022/03/10 06:31:28;;;;;;;30.17;6.67;;;;;;;-1.19;71.87;97130.84;5060332;28;20217;-68
2022/03/10 06:33:54;;;;;;;8.17;4.03;;;;;;;-1.16;72.32;97128.13;5058944;28;20232;-68
2022/03/10 06:36:21;;;;;;;1.97;1.40;;;;;;;-1.00;73.58;97120.34;5059254;28;20223;-68
2022/03/10 06:38:47;;;;;;;7.50;4.07;;;;;;;-0.97;73.36;97118.41;5059471;28;20224;-68
2022/03/10 06:41:14;;;;;;;1.47;1.43;;;;;;;-0.94;73.45;97118.22;5063598;28;20598;-68
2022/03/10 06:43:41;;;;;;;7.97;2.67;;;;;;;-0.70;72.88;97122.00;5071168;28;20611;-68
2022/03/10 06:46:09;;;;;;;3.27;1.70;;;;;;;-0.46;73.23;97123.16;5071412;28;20241;-68
2022/03/10 06:48:36;;;;;;;6.17;2.90;;;;;;;-0.53;73.08;97124.44;5061408;28;20204;-68
2022/03/10 06:51:02;;;;;;;1.63;1.53;;;;;;;-0.54;73.74;97123.59;5071389;28;20197;-68
2022/03/10 06:53:29;;;;;;;3.23;2.67;;;;;;;-0.43;73.92;97131.59;5070897;28;20227;-68
2022/03/10 06:55:55;;;;;;;8.43;4.73;;;;;;;-0.34;73.33;97130.22;5071872;28;20223;-68
2022/03/10 06:58:22;;;;;;;4.37;3.10;;;;;;;-0.14;73.32;97124.69;5072038;28;20206;-68
2022/03/10 07:00:48;;;;;;;3.30;3.00;;;;;;;-0.06;73.33;97119.88;5072447;28;20210;-68
2022/03/10 07:03:16;;;;;;;8.03;4.43;;;;;;;0.16;73.65;97124.50;5072085;28;20227;-68
2022/03/10 07:05:43;;;;;;;5.53;2.67;;;;;;;0.10;74.10;97122.31;5071040;28;20192;-68
2022/03/10 07:08:10;;;;;;;7.63;3.67;;;;;;;0.34;74.05;97125.16;5071694;28;20255;-68
2022/03/10 07:10:37;;;;;;;8.67;4.20;;;;;;;0.45;73.17;97118.38;5068171;28;20254;-68
2022/03/10 07:13:03;;;;;;;15.53;5.20;;;;;;;0.51;73.20;97122.34;5071441;28;20685;-69
2022/03/10 07:15:30;;;;;;;3.43;3.13;;;;;;;0.62;73.44;97121.59;5071609;28;20553;-68
2022/03/10 07:17:56;;;;;;;7.03;3.70;;;;;;;0.75;72.67;97121.63;5071632;28;20212;-68
2022/03/10 07:20:24;;;;;;;4.87;1.90;;;;;;;1.03;72.44;97117.22;5071876;28;20212;-68
2022/03/10 07:22:51;;;;;;;4.23;2.97;;;;;;;1.04;72.03;97120.63;5071204;28;20236;-68
2022/03/10 07:25:17;;;;;;;16.57;5.97;;;;;;;1.04;71.96;97129.22;5071837;28;20209;-68
2022/03/10 07:27:44;;;;;;;4.27;3.13;;;;;;;1.11;71.26;97127.94;5071233;28;20200;-68
2022/03/10 07:30:11;;;;;;;8.27;2.97;;;;;;;1.21;72.49;97127.22;5072019;28;20196;-68
2022/03/10 07:32:37;;;;;;;3.60;3.30;;;;;;;1.40;72.34;97135.50;5071885;28;20231;-68
2022/03/10 07:35:04;;;;;;;8.13;3.53;;;;;;;1.50;74.32;97138.31;5071951;28;20196;-68
2022/03/10 07:37:32;;;;;;;6.80;4.17;;;;;;;1.64;74.00;97140.81;5071796;28;20226;-68
2022/03/10 07:39:58;;;;;;;7.63;3.53;;;;;;;1.70;73.43;97146.44;5071992;28;20610;-68
2022/03/10 07:42:25;;;;;;;7.77;3.40;;;;;;;1.78;73.54;97138.97;5070995;28;20247;-68
2022/03/10 07:44:52;;;;;;;4.03;2.90;;;;;;;1.87;72.93;97149.59;5072287;28;20225;-68
2022/03/10 07:47:19;;;;;;;3.00;2.50;;;;;;;2.24;72.21;97147.91;5071279;28;20208;-68
2022/03/10 07:49:45;;;;;;;6.57;4.10;;;;;;;2.33;71.89;97145.53;5067574;28;20217;-69
2022/03/10 07:52:12;;;;;;;5.37;4.23;;;;;;;2.52;71.09;97146.75;5057400;28;20219;-69
2022/03/10 07:54:40;;;;;;;3.47;2.57;;;;;;;2.48;71.80;97147.06;5057656;28;20218;-69
2022/03/10 07:57:06;;;;;;;5.07;2.70;;;;;;;2.71;70.47;97139.34;5057216;28;20231;-69
2022/03/10 07:59:33;;;;;;;2.77;2.50;;;;;;;2.98;70.43;97132.19;5057454;28;20856;-69
2022/03/10 08:01:59;;;;;;;5.57;2.87;;;;;;;2.97;70.33;97130.50;5057584;28;20205;-69
2022/03/10 08:04:26;;;;;;;6.50;3.53;;;;;;;3.04;69.81;97132.56;5057061;28;20208;-69
2022/03/10 08:06:52;;;;;;;8.80;3.67;;;;;;;3.31;68.83;97127.13;5057411;28;20209;-69
2022/03/10 08:09:20;;;;;;;4.73;3.27;;;;;;;3.54;69.38;97124.50;5057467;28;20198;-69
2022/03/10 08:11:48;;;;;;;8.80;4.00;;;;;;;3.82;67.87;97131.94;5058034;28;20206;-69
2022/03/10 08:14:14;;;;;;;4.37;3.00;;;;;;;3.62;67.72;97122.97;5057012;28;21251;-69
2022/03/10 08:16:41;;;;;;;8.73;4.20;;;;;;;3.70;67.15;97118.03;5057090;28;20212;-69
2022/03/10 08:19:09;;;;;;;5.30;2.03;;;;;;;3.81;67.57;97125.88;5057168;28;20297;-69
2022/03/10 08:21:35;;;;;;;6.53;2.77;;;;;;;3.95;66.69;97127.47;5057331;28;20305;-69
2022/03/10 08:24:02;;;;;;;4.13;3.07;;;;;;;4.16;65.87;97129.25;5056084;28;20232;-69
2022/03/10 08:26:28;;;;;;;7.83;3.60;;;;;;;4.20;65.40;97122.88;5056811;28;20712;-69
2022/03/10 08:28:56;;;;;;;3.50;2.90;;;;;;;4.55;66.01;97113.16;5057270;28;20206;-69
2022/03/10 08:31:23;;;;;;;3.60;2.30;;;;;;;4.42;65.82;97117.66;5056657;28;20204;-70
2022/03/10 08:33:50;;;;;;;8.10;2.73;;;;;;;4.55;65.79;97108.75;5056401;28;20317;-69
2022/03/10 08:36:17;;;;;;;3.43;2.77;;;;;;;4.82;65.21;97107.44;5056716;28;20691;-69
2022/03/10 08:38:43;;;;;;;4.57;2.40;;;;;;;5.15;62.84;97106.53;5053723;28;20220;-69
2022/03/10 08:41:10;;;;;;;3.93;3.47;;;;;;;5.23;62.35;97107.56;5056173;28;20733;-70
2022/03/10 08:43:37;;;;;;;9.93;3.97;;;;;;;5.47;62.61;97113.41;5055426;28;20647;-69
2022/03/10 08:46:06;;;;;;;3.13;2.57;;;;;;;5.64;62.65;97097.19;5055834;28;20303;-69
2022/03/10 08:48:34;;;;;;;4.87;2.97;;;;;;;5.60;60.90;97111.44;5055438;28;20258;-69
2022/03/10 08:51:00;;;;;;;11.10;4.53;;;;;;;5.72;60.48;97102.63;5056446;28;20201;-69
2022/03/10 08:53:27;;;;;;;14.10;3.23;;;;;;;5.75;59.80;97104.97;5054912;28;20228;-69
2022/03/10 08:55:53;;;;;;;3.93;2.77;;;;;;;5.80;60.23;97100.22;5056384;28;20665;-69
2022/03/10 08:58:20;;;;;;;6.67;3.13;;;;;;;5.73;59.74;97099.88;5055715;28;20419;-69
2022/03/10 09:00:46;;;;;;;11.80;4.50;;;;;;;6.14;60.50;97098.09;5054616;28;20221;-69
2022/03/10 09:03:14;;;;;;;14.27;2.77;;;;;;;6.50;59.08;97089.72;5052969;28;20227;-69
2022/03/10 09:05:42;;;;;;;8.23;4.47;;;;;;;6.43;59.39;97099.06;5054453;28;20595;-69
2022/03/10 09:08:09;;;;;;;5.13;2.87;;;;;;;6.44;58.52;97087.66;5054774;28;20575;-69
2022/03/10 09:10:35;;;;;;;8.77;3.00;;;;;;;6.72;58.18;97081.66;5054857;28;20219;-69
2022/03/10 09:13:02;;;;;;;4.40;3.03;;;;;;;6.88;58.45;97092.47;5053690;28;20227;-70
2022/03/10 09:15:28;;;;;;;6.57;3.47;;;;;;;7.05;57.35;97081.34;5054929;28;20677;-70
2022/03/10 09:17:55;;;;;;;10.70;4.17;;;;;;;7.09;57.36;97087.97;5053945;28;20207;-70
2022/03/10 09:20:23;;;;;;;11.97;3.03;;;;;;;7.54;56.60;97082.91;5055114;28;20228;-70
2022/03/10 09:22:50;;;;;;;5.17;2.43;;;;;;;7.56;56.34;97083.59;5055281;28;20212;-69
2022/03/10 09:25:16;;;;;;;5.10;3.23;;;;;;;7.45;55.17;97078.50;5054593;28;20211;-69
2022/03/10 09:27:43;;;;;;;8.67;4.73;;;;;;;7.57;56.28;97066.06;5055310;28;20658;-70
2022/03/10 09:30:12;;;;;;;10.70;3.83;;;;;;;7.65;55.52;97068.81;5054691;28;20201;-69
2022/03/10 09:32:41;;;;;;;6.17;3.57;;;;;;;7.97;57.09;97067.56;5054209;28;20216;-69
2022/03/10 09:35:10;;;;;;;7.67;3.67;;;;;;;8.21;56.08;97067.91;5054504;28;20208;-70
2022/03/10 09:37:38;;;;;;;6.93;3.37;;;;;;;8.32;54.64;97065.94;5053635;28;20744;-69
2022/03/10 09:40:08;;;;;;;5.57;3.23;;;;;;;8.60;52.23;97063.25;5055178;28;20588;-69
2022/03/10 09:42:34;;;;;;;6.33;3.07;;;;;;;8.70;52.38;97064.00;5054207;28;20231;-70
2022/03/10 09:45:03;;;;;;;8.07;3.77;;;;;;;8.66;54.26;97056.56;5054685;28;20592;-70
2022/03/10 09:47:30;;;;;;;6.00;3.27;;;;;;;8.82;53.58;97052.34;5054664;28;20223;-70
2022/03/10 09:49:56;;;;;;;9.97;4.27;;;;;;;8.74;55.16;97051.41;5054827;28;20204;-70
2022/03/10 09:52:25;;;;;;;6.80;4.10;;;;;;;8.96;52.88;97056.25;5053678;28;20224;-69
2022/03/10 09:54:52;;;;;;;7.20;3.90;;;;;;;8.99;52.39;97043.66;5055023;28;20270;-69
2022/03/10 09:57:22;;;;;;;6.23;3.73;;;;;;;9.12;53.81;97052.81;5055033;28;20373;-68
2022/03/10 09:59:49;;;;;;;8.80;3.83;;;;;;;9.41;51.95;97047.38;5054415;28;20239;-68
2022/03/10 10:02:16;;;;;;;8.83;3.27;;;;;;;9.09;52.42;97052.31;5053297;28;20263;-68
2022/03/10 10:04:43;;;;;;;9.27;4.00;;;;;;;9.12;51.04;97038.84;5054916;28;20205;-68
2022/03/10 10:07:11;;;;;;;7.60;3.83;;;;;;;9.43;50.69;97033.09;5058482;28;20204;-68
2022/03/10 10:09:42;;;;;;;9.30;3.70;;;;;;;9.81;51.89;97028.31;5058993;28;20196;-68
2022/03/10 10:12:11;;;;;;;6.30;3.30;;;;;;;10.29;49.62;97027.84;5058936;28;20200;-67
2022/03/10 10:14:39;;;;;;;8.33;3.40;;;;;;;10.45;48.94;97020.84;5058680;28;20207;-68
2022/03/10 10:17:06;;;;;;;3.03;2.17;;;;;;;10.44;47.67;97014.75;5059600;28;20196;-68
2022/03/10 10:19:34;;;;;;;8.53;2.63;;;;;;;10.79;46.57;97016.38;5058722;28;20228;-68
2022/03/10 10:22:14;;;;;;;5.57;2.63;;;;;;;11.34;45.97;97008.63;5058339;28;20266;-68
2022/03/10 10:24:48;;;;;;;15.63;3.73;;;;;;;11.38;45.67;97007.31;5058608;28;20287;-68
2022/03/10 10:27:18;;;;;;;5.27;2.63;;;;;;;11.48;45.01;97013.25;5059396;28;20218;-68
2022/03/10 10:29:49;;;;;;;5.10;2.80;;;;;;;11.69;44.08;97003.06;5059506;28;20205;-68
2022/03/10 10:32:26;;;;;;;6.20;2.47;;;;;;;11.69;44.16;96998.59;5058663;28;20295;-68
2022/03/10 10:35:07;;;;;;;4.63;2.20;;;;;;;11.86;42.12;97002.91;5060332;28;20200;-69
2022/03/10 10:37:35;;;;;;;5.80;3.30;;;;;;;11.39;44.64;97000.19;5058960;28;20216;-68
2022/03/10 10:40:02;;;;;;;8.73;2.40;;;;;;;11.48;41.50;96999.22;5059335;28;20224;-68
2022/03/10 10:42:35;;;;;;;4.17;2.47;;;;;;;11.83;43.17;96990.00;5058753;28;20224;-68
2022/03/10 10:45:22;;;;;;;7.03;2.13;;;;;;;11.82;41.76;96983.06;5059261;28;20207;-69
2022/03/10 10:47:59;;;;;;;5.20;2.50;;;;;;;11.97;41.72;96985.88;5058449;28;20192;-69
2022/03/10 10:50:29;;;;;;;5.57;2.87;;;;;;;11.91;41.38;96987.34;5059042;28;20200;-68
2022/03/10 10:52:56;;;;;;;4.43;2.13;;;;;;;11.91;41.31;96986.53;5057973;28;20225;-68
2022/03/10 10:55:32;;;;;;;5.30;2.87;;;;;;;12.31;39.79;96977.53;5059125;28;20211;-67
2022/03/10 10:58:05;;;;;;;4.37;2.17;;;;;;;12.61;40.36;96975.94;5058948;28;20673;-69
2022/03/10 11:00:42;;;;;;;4.13;2.20;;;;;;;12.75;39.50;96967.28;5058435;28;20225;-68
2022/03/10 11:03:20;;;;;;;7.07;2.97;;;;;;;12.77;39.56;96972.22;5058290;28;20231;-68
2022/03/10 11:05:48;;;;;;;6.53;2.13;;;;;;;12.67;39.03;96960.22;5058759;28;20204;-67
2022/03/10 11:08:15;;;;;;;4.63;2.77;;;;;;;12.86;37.69;96965.13;5058871;28;20615;-69
2022/03/10 11:10:42;;;;;;;4.20;1.87;;;;;;;12.87;37.37;96962.28;5058234;28;20642;-68
2022/03/10 11:13:10;;;;;;;7.17;2.37;;;;;;;12.76;37.65;96956.53;5057982;28;20233;-68
2022/03/10 11:15:38;;;;;;;6.07;2.47;;;;;;;12.92;38.48;96953.84;5058448;28;20208;-68
2022/03/10 11:18:05;;;;;;;5.57;1.93;;;;;;;13.05;37.70;96954.91;5058751;28;20200;-69
2022/03/10 11:20:34;;;;;;;5.57;2.17;;;;;;;13.26;36.19;96941.84;5058714;28;20221;-69
2022/03/10 11:23:09;;;;;;;5.03;2.00;;;;;;;13.20;35.90;96942.59;5057698;28;20232;-69
2022/03/10 11:25:45;;;;;;;6.60;1.83;;;;;;;13.36;35.05;96937.16;5058046;28;20196;-68
2022/03/10 11:28:16;;;;;;;2.63;1.60;;;;;;;13.41;35.11;96938.25;5058818;28;20208;-68
2022/03/10 11:30:49;;;;;;;7.93;1.98;;;;;;;13.61;35.53;96931.50;5058418;28;20207;-69
2022/03/10 11:33:17;;;;;;;4.77;2.27;;;;;;;13.54;34.94;96930.56;5057465;28;20277;-68
2022/03/10 11:35:46;;;;;;;4.80;1.60;;;;;;;13.50;35.57;96921.34;5057742;28;20848;-68
2022/03/10 11:38:13;;;;;;;5.90;2.10;;;;;;;13.27;35.95;96921.53;5058004;28;20235;-68
2022/03/10 11:40:46;;;;;;;6.07;1.97;;;;;;;13.28;36.73;96923.19;5058180;28;20216;-68
2022/03/10 11:43:19;;;;;;;7.45;2.03;;;;;;;13.60;36.02;96908.66;5056267;28;20251;-70